Time;durP1;ratioP1;P1;durP2;ratioP2;P2;SDS_P1;SDS_P2;PMS_P1;PMS_P2;Temp;Humidity;BMP_temperature;BMP_pressure;BME280_temperature;BME280_humidity;BME280_pressure;Samples;Min_cycle;Max_cycle;Signal;HPM_P1;HPM_P2
2022/01/24 00:00:51;;;;;;;17.43;8.83;;;;;;;19.42;30.07;103573.84;5068265;28;20123;-71
2022/01/24 00:03:16;;;;;;;19.07;9.10;;;;;;;19.75;29.55;103558.66;5055510;28;20028;-70
2022/01/24 00:05:42;;;;;;;17.80;8.63;;;;;;;19.45;29.88;103565.91;5069579;28;20051;-70
2022/01/24 00:08:07;;;;;;;16.87;8.50;;;;;;;19.60;28.82;103562.28;5055057;28;20029;-70
2022/01/24 00:10:35;;;;;;;16.40;8.77;;;;;;;19.46;29.39;103567.66;5067357;28;20034;-70
2022/01/24 00:13:58;;;;;;;16.47;8.20;;;;;;;19.70;28.82;103568.44;5064272;28;20073;-70
2022/01/24 00:16:13;;;;;;;17.97;9.00;;;;;;;19.57;29.51;103567.59;5028932;28;20492;-70
2022/01/24 00:26:49;;;;;;;18.67;8.53;;;;;;;19.59;29.55;103555.22;5049138;28;20558;-70
2022/01/24 00:29:17;;;;;;;17.67;9.87;;;;;;;19.45;29.71;103552.66;5062934;28;20032;-70
2022/01/24 00:31:42;;;;;;;23.50;9.43;;;;;;;19.53;29.17;103552.59;5049952;28;20035;-70
2022/01/24 00:34:08;;;;;;;17.83;8.87;;;;;;;19.89;28.92;103549.78;5066860;28;20020;-70
2022/01/24 00:36:35;;;;;;;18.50;9.30;;;;;;;19.94;29.17;103553.31;5068807;28;20024;-70
2022/01/24 00:39:00;;;;;;;18.20;9.00;;;;;;;20.04;28.66;103554.97;5057458;28;20078;-70
2022/01/24 00:41:25;;;;;;;19.47;9.20;;;;;;;19.91;29.07;103548.03;5050902;28;20029;-71
2022/01/24 00:46:36;;;;;;;17.17;8.77;;;;;;;19.78;29.35;103548.06;5066289;28;20073;-70
2022/01/24 00:49:24;;;;;;;17.73;9.40;;;;;;;19.07;30.01;103556.31;5053190;28;20033;-70
2022/01/24 00:54:43;;;;;;;17.83;8.77;;;;;;;19.55;30.47;103553.50;5043235;28;20052;-70
2022/01/24 00:57:10;;;;;;;19.57;9.37;;;;;;;19.45;30.36;103550.00;5051891;28;20081;-70
2022/01/24 00:59:35;;;;;;;19.53;9.90;;;;;;;19.44;29.66;103550.88;5049903;28;20033;-70
2022/01/24 01:02:04;;;;;;;17.53;9.40;;;;;;;19.53;30.61;103543.78;5050806;28;20048;-70
2022/01/24 01:07:06;;;;;;;20.50;10.40;;;;;;;20.05;29.57;103543.47;5050888;28;20037;-70
2022/01/24 01:20:34;;;;;;;20.03;9.27;;;;;;;20.08;30.12;103556.72;5051616;28;20539;-70
2022/01/24 01:23:00;;;;;;;21.37;10.43;;;;;;;19.78;30.89;103542.75;5066699;28;20040;-70
2022/01/24 01:25:25;;;;;;;21.27;10.07;;;;;;;19.76;29.93;103547.16;5066712;28;20037;-70
2022/01/24 01:27:52;;;;;;;22.50;11.07;;;;;;;19.66;29.79;103543.69;5051273;28;20037;-71
2022/01/24 01:30:22;;;;;;;25.80;10.60;;;;;;;19.62;30.01;103551.69;5050583;28;20106;-70
2022/01/24 01:38:38;;;;;;;29.90;13.37;;;;;;;19.78;30.07;103548.06;5053228;28;20044;-70
2022/01/24 01:56:50;;;;;;;23.47;11.13;;;;;;;18.75;31.95;103538.69;5050730;28;20033;-69
2022/01/24 01:59:15;;;;;;;30.03;13.73;;;;;;;19.32;31.05;103537.66;5049607;28;20025;-70
2022/01/24 02:01:40;;;;;;;33.67;14.27;;;;;;;18.67;32.67;103543.13;5049970;28;20052;-70
2022/01/24 02:04:06;;;;;;;27.97;14.00;;;;;;;19.35;31.58;103542.97;5063720;28;20024;-70
2022/01/24 02:06:32;;;;;;;38.10;15.07;;;;;;;19.03;31.91;103551.91;5052386;28;20035;-70
2022/01/24 02:08:59;;;;;;;33.47;14.93;;;;;;;19.44;31.91;103548.22;5050934;28;20051;-70
2022/01/24 02:11:25;;;;;;;36.20;16.03;;;;;;;19.21;32.04;103539.50;5048848;28;20024;-70
2022/01/24 02:13:50;;;;;;;35.43;16.20;;;;;;;19.49;31.72;103542.88;5058559;28;20051;-70
2022/01/24 02:19:03;;;;;;;37.90;16.37;;;;;;;18.63;34.09;103546.66;5062507;28;20032;-70
2022/01/24 02:21:42;;;;;;;36.20;16.33;;;;;;;19.49;32.51;103534.94;5069382;28;20040;-70
2022/01/24 02:24:09;;;;;;;39.90;17.40;;;;;;;19.23;33.02;103535.03;5053621;28;20091;-70
2022/01/24 02:26:34;;;;;;;44.20;17.67;;;;;;;19.62;32.04;103530.47;5050181;28;20400;-70
2022/01/24 02:34:20;;;;;;;44.47;18.30;;;;;;;19.43;32.76;103525.25;5065540;28;20558;-70
2022/01/24 02:36:45;;;;;;;40.23;16.77;;;;;;;19.35;33.11;103521.75;5049572;28;20116;-70
2022/01/24 02:49:48;;;;;;;49.07;18.63;;;;;;;19.32;33.24;103522.63;5050515;28;20090;-70
2022/01/24 02:52:14;;;;;;;41.70;18.53;;;;;;;19.60;32.20;103516.31;5059709;28;20025;-70
2022/01/24 02:54:41;;;;;;;45.23;18.20;;;;;;;19.57;32.46;103514.56;5065331;28;20033;-70
2022/01/24 02:57:09;;;;;;;40.07;17.03;;;;;;;19.30;33.19;103512.91;5050033;28;20071;-70
2022/01/24 02:59:35;;;;;;;41.03;17.47;;;;;;;19.42;32.97;103512.84;5047376;28;20051;-70
2022/01/24 03:02:01;;;;;;;37.47;18.23;;;;;;;19.11;33.22;103518.31;5058923;28;20450;-70
2022/01/24 03:04:27;;;;;;;41.07;17.67;;;;;;;19.28;32.98;103506.75;5049379;28;20036;-70
2022/01/24 03:06:52;;;;;;;46.73;18.83;;;;;;;19.01;33.21;103510.38;5049368;28;20033;-70
2022/01/24 03:09:18;;;;;;;38.97;16.63;;;;;;;19.54;32.33;103505.75;5048490;28;20056;-70
2022/01/24 03:12:07;;;;;;;41.23;18.10;;;;;;;19.65;32.23;103501.25;5065737;28;20009;-70
2022/01/24 03:14:36;;;;;;;50.67;19.00;;;;;;;19.65;32.06;103501.25;5049105;28;20135;-70
2022/01/24 03:17:03;;;;;;;44.20;19.80;;;;;;;19.37;33.07;103496.13;5059029;28;20032;-70
2022/01/24 03:19:29;;;;;;;46.47;19.73;;;;;;;19.11;32.98;103497.09;5050513;28;20095;-70
2022/01/24 03:21:54;;;;;;;44.57;18.70;;;;;;;19.34;33.22;103501.41;5056589;28;20488;-70
2022/01/24 03:24:20;;;;;;;46.13;19.13;;;;;;;19.19;32.70;103493.53;5065326;28;20029;-70
2022/01/24 03:26:47;;;;;;;48.10;19.10;;;;;;;18.97;33.69;103493.59;5067292;28;20147;-70
2022/01/24 03:29:12;;;;;;;47.10;19.50;;;;;;;18.67;34.52;103500.72;5067535;28;20518;-71
2022/01/24 03:31:39;;;;;;;48.93;19.87;;;;;;;19.11;33.39;103497.09;5062007;28;20096;-70
2022/01/24 03:34:05;;;;;;;48.60;19.50;;;;;;;18.94;33.65;103493.63;5047618;28;20040;-70
2022/01/24 03:36:30;;;;;;;48.57;19.90;;;;;;;19.20;33.10;103492.66;5068471;28;20020;-70
2022/01/24 03:38:55;;;;;;;48.93;19.73;;;;;;;18.95;33.84;103496.25;5067661;28;20155;-70
2022/01/24 03:41:21;;;;;;;47.43;18.37;;;;;;;18.82;33.93;103484.78;5067976;28;20037;-70
2022/01/24 03:43:46;;;;;;;46.80;19.33;;;;;;;18.84;34.02;103487.44;5056367;28;20468;-70
2022/01/24 03:51:10;;;;;;;43.93;18.53;;;;;;;18.61;34.19;103491.00;5049249;28;20047;-70
2022/01/24 03:53:35;;;;;;;44.90;18.73;;;;;;;19.30;32.82;103484.66;5057062;28;20033;-70
2022/01/24 03:56:01;;;;;;;50.50;19.47;;;;;;;19.14;33.34;103490.91;5044225;28;20155;-70
2022/01/24 03:58:27;;;;;;;44.90;19.57;;;;;;;19.04;33.56;103490.06;5074545;28;20479;-70
2022/01/24 04:00:52;;;;;;;41.70;17.43;;;;;;;19.61;32.03;103491.56;5065832;28;20021;-70
2022/01/24 04:03:18;;;;;;;41.37;17.53;;;;;;;19.26;33.01;103485.56;5046937;28;20491;-70
2022/01/24 04:05:43;;;;;;;43.50;17.80;;;;;;;19.44;32.56;103489.88;5049909;28;20104;-70
2022/01/24 04:08:09;;;;;;;42.70;18.73;;;;;;;19.50;32.14;103499.56;5083025;28;20483;-70
2022/01/24 04:10:42;;;;;;;41.33;17.07;;;;;;;18.84;33.28;103498.03;5065523;28;20029;-70
2022/01/24 04:13:22;;;;;;;39.65;17.15;;;;;;;19.15;32.67;103495.28;5052623;28;20290;-70
2022/01/24 04:23:50;;;;;;;41.03;17.90;;;;;;;18.67;33.45;103494.53;5054230;28;20114;-70
2022/01/24 04:26:15;;;;;;;41.47;16.37;;;;;;;18.79;33.24;103500.72;5058608;28;20039;-70
2022/01/24 04:28:41;;;;;;;43.90;17.70;;;;;;;18.81;32.93;103498.06;5081075;28;20434;-70
2022/01/24 04:31:06;;;;;;;40.90;17.70;;;;;;;19.36;31.85;103489.03;5059770;28;20086;-70
2022/01/24 04:33:32;;;;;;;43.30;17.13;;;;;;;18.59;32.27;103497.22;5053979;28;20155;-70
2022/01/24 04:35:57;;;;;;;39.30;18.00;;;;;;;18.30;32.75;103501.63;5087542;28;20028;-70
2022/01/24 04:38:23;;;;;;;42.00;18.20;;;;;;;18.58;32.45;103500.75;5065963;28;20067;-70
2022/01/24 04:40:49;;;;;;;40.43;18.53;;;;;;;19.35;30.78;103500.53;5057235;28;20016;-70
2022/01/24 04:51:12;;;;;;;38.23;17.77;;;;;;;18.00;31.81;103486.63;5062227;28;20131;-70
2022/01/24 04:56:03;;;;;;;42.47;18.07;;;;;;;18.48;31.52;103490.16;5052573;28;20536;-70
2022/01/24 04:58:29;;;;;;;46.70;21.03;;;;;;;17.83;32.33;103477.75;5051009;28;20078;-70
2022/01/24 05:00:54;;;;;;;49.40;21.10;;;;;;;17.68;32.21;103486.53;5054650;28;20384;-70
2022/01/24 05:03:20;;;;;;;46.57;19.63;;;;;;;16.48;34.19;103490.34;5068505;28;20033;-70
2022/01/24 05:05:46;;;;;;;48.73;20.67;;;;;;;17.71;32.74;103479.50;5056088;28;20058;-70
2022/01/24 05:08:13;;;;;;;48.03;20.63;;;;;;;17.75;33.24;103491.84;5070574;28;20047;-70
2022/01/24 05:10:52;;;;;;;46.67;20.60;;;;;;;18.86;31.09;103484.78;5069388;28;20020;-70
2022/01/24 05:24:33;;;;;;;44.60;20.37;;;;;;;18.65;31.60;103486.59;5012294;28;20124;-70
2022/01/24 05:27:00;;;;;;;51.40;21.47;;;;;;;18.95;31.09;103490.97;5016695;28;20040;-70
2022/01/24 05:29:25;;;;;;;53.33;22.77;;;;;;;18.37;32.30;103485.72;5024683;28;20060;-70
2022/01/24 05:31:51;;;;;;;53.43;21.63;;;;;;;18.03;32.41;103481.34;5028439;28;20477;-70
2022/01/24 05:34:17;;;;;;;51.43;22.10;;;;;;;17.94;32.69;103481.31;5026022;28;20022;-70
2022/01/24 05:36:42;;;;;;;53.47;23.23;;;;;;;17.19;33.01;103487.28;5043501;28;20041;-71
2022/01/24 05:39:08;;;;;;;58.93;23.37;;;;;;;17.33;32.08;103482.91;5010231;28;20374;-70
2022/01/24 05:41:36;;;;;;;53.23;21.70;;;;;;;17.17;33.18;103489.03;5025986;28;20478;-70
2022/01/24 05:44:01;;;;;;;54.17;22.63;;;;;;;17.89;31.81;103483.06;5022163;28;20128;-70
2022/01/24 05:46:27;;;;;;;50.90;22.33;;;;;;;16.61;34.11;103493.97;5020283;28;20116;-70
2022/01/24 05:48:52;;;;;;;58.27;25.27;;;;;;;16.38;34.20;103489.41;5029745;28;20021;-70
2022/01/24 05:51:20;;;;;;;57.47;21.60;;;;;;;17.20;32.76;103489.94;5022452;28;20047;-70
2022/01/24 05:53:45;;;;;;;52.47;22.07;;;;;;;18.20;31.03;103480.47;5046934;28;20044;-70
2022/01/24 05:56:11;;;;;;;59.80;22.87;;;;;;;17.02;33.09;103490.72;5021040;28;20021;-70
2022/01/24 05:58:36;;;;;;;55.07;23.93;;;;;;;17.55;32.76;103488.28;5009929;28;20032;-70
2022/01/24 06:01:01;;;;;;;53.53;22.27;;;;;;;18.10;31.88;103488.38;5042753;28;20022;-70
2022/01/24 06:03:27;;;;;;;57.27;22.43;;;;;;;17.83;32.10;103488.34;5008753;28;20053;-70
2022/01/24 06:05:53;;;;;;;54.23;23.07;;;;;;;17.03;33.21;103484.53;5015460;28;20036;-70
2022/01/24 06:08:18;;;;;;;54.27;24.50;;;;;;;18.05;31.59;103495.47;5029739;28;20477;-70
2022/01/24 06:10:45;;;;;;;58.73;23.67;;;;;;;17.91;31.96;103497.16;5018674;28;20030;-70
2022/01/24 06:13:10;;;;;;;50.70;21.33;;;;;;;17.13;32.88;103501.31;5029485;28;20543;-70
2022/01/24 06:15:35;;;;;;;51.87;23.60;;;;;;;17.49;32.68;103490.91;5028410;28;20116;-70
2022/01/24 06:18:01;;;;;;;52.70;21.60;;;;;;;18.18;31.58;103500.78;5028895;28;20037;-70
2022/01/24 06:20:26;;;;;;;53.63;22.67;;;;;;;17.80;31.14;103499.78;5035210;28;20049;-70
2022/01/24 06:22:52;;;;;;;46.87;20.27;;;;;;;17.69;31.87;103502.41;5049263;28;20484;-70
2022/01/24 06:25:21;;;;;;;54.93;22.90;;;;;;;16.84;32.81;103514.34;5062043;28;20040;-70
2022/01/24 06:27:46;;;;;;;50.57;21.27;;;;;;;18.09;31.18;103505.19;5069595;28;20085;-70
2022/01/24 06:30:12;;;;;;;49.07;22.00;;;;;;;18.34;30.83;103507.81;5056516;28;20024;-70
2022/01/24 06:32:38;;;;;;;50.90;21.70;;;;;;;17.38;32.16;103506.72;5048403;28;20091;-70
2022/01/24 06:35:04;;;;;;;56.23;23.73;;;;;;;17.78;31.54;103512.16;5048773;28;20025;-69
2022/01/24 06:37:30;;;;;;;56.07;24.00;;;;;;;16.88;32.61;103511.72;5048388;28;20113;-70
2022/01/24 06:39:56;;;;;;;55.80;23.60;;;;;;;17.55;32.03;103507.66;5067739;28;20032;-70
2022/01/24 06:42:23;;;;;;;56.67;23.43;;;;;;;17.43;32.11;103503.25;5064298;28;20143;-70
2022/01/24 06:44:53;;;;;;;51.00;23.17;;;;;;;18.01;31.28;103506.94;5047324;28;20027;-70
2022/01/24 06:47:19;;;;;;;51.47;22.10;;;;;;;18.45;30.58;103503.41;5051337;28;20033;-70
2022/01/24 06:49:45;;;;;;;56.70;23.77;;;;;;;18.30;31.07;103506.06;5058231;28;20503;-70
2022/01/24 06:52:10;;;;;;;58.10;22.67;;;;;;;18.34;30.50;103506.94;5050251;28;20028;-70
2022/01/24 06:54:37;;;;;;;53.53;23.83;;;;;;;17.88;30.85;103507.75;5050354;28;20107;-70
2022/01/24 06:57:03;;;;;;;54.73;22.10;;;;;;;17.84;31.60;103505.97;5049991;28;20017;-69
2022/01/24 06:59:29;;;;;;;51.50;22.80;;;;;;;16.68;33.62;103516.91;5047523;28;20536;-70
2022/01/24 07:01:54;;;;;;;56.37;22.10;;;;;;;17.57;31.85;103512.94;5048822;28;20108;-70
2022/01/24 07:04:19;;;;;;;50.53;22.00;;;;;;;17.56;32.10;103516.50;5052907;28;20119;-69
2022/01/24 07:06:46;;;;;;;50.10;22.40;;;;;;;18.11;30.44;103515.75;5054031;28;20115;-70
2022/01/24 07:09:12;;;;;;;52.20;21.47;;;;;;;18.45;30.19;103514.00;5064915;28;20072;-70
2022/01/24 07:11:38;;;;;;;51.17;23.53;;;;;;;18.16;29.88;103518.41;5060776;28;20037;-70
2022/01/24 07:14:07;;;;;;;54.10;23.17;;;;;;;18.69;29.31;103520.13;5067933;28;20078;-70
2022/01/24 07:16:50;;;;;;;55.13;23.33;;;;;;;18.12;30.06;103526.34;5067374;28;20502;-70
2022/01/24 07:19:15;;;;;;;51.40;21.60;;;;;;;17.78;30.57;103528.03;5049963;28;20055;-70
2022/01/24 07:21:40;;;;;;;49.40;21.97;;;;;;;17.45;31.20;103529.69;5064298;28;20504;-70
2022/01/24 07:24:06;;;;;;;47.63;20.90;;;;;;;17.79;31.21;103527.13;5047540;28;20115;-70
2022/01/24 07:26:31;;;;;;;50.90;21.27;;;;;;;18.35;30.66;103520.16;5050074;28;20044;-70
2022/01/24 07:28:57;;;;;;;46.70;20.30;;;;;;;18.13;29.93;103522.81;5049441;28;20032;-70
2022/01/24 07:31:22;;;;;;;43.57;20.53;;;;;;;17.89;30.75;103530.69;5055010;28;20372;-70
2022/01/24 07:33:49;;;;;;;46.43;21.57;;;;;;;17.95;30.00;103541.31;5063617;28;20063;-70
2022/01/24 07:36:15;;;;;;;50.03;22.93;;;;;;;17.86;30.75;103541.25;5078489;28;20124;-70
2022/01/24 07:38:40;;;;;;;48.80;21.23;;;;;;;16.90;30.57;103552.28;5048408;28;20112;-70
2022/01/24 07:41:06;;;;;;;44.47;20.80;;;;;;;17.70;30.33;103541.22;5047561;28;20064;-70
2022/01/24 07:43:32;;;;;;;46.93;20.83;;;;;;;17.61;30.19;103547.38;5048013;28;20036;-70
2022/01/24 07:45:57;;;;;;;44.20;21.07;;;;;;;17.02;31.21;103556.78;5053139;28;20029;-70
2022/01/24 07:48:23;;;;;;;37.90;17.20;;;;;;;17.51;31.21;103555.25;5063767;28;20029;-70
2022/01/24 07:50:51;;;;;;;38.93;17.80;;;;;;;16.87;30.64;103556.63;5063574;28;20077;-70
2022/01/24 07:53:17;;;;;;;31.50;14.97;;;;;;;17.33;29.56;103551.66;5068184;28;20025;-70
2022/01/24 07:55:43;;;;;;;33.37;15.50;;;;;;;17.85;29.63;103550.09;5052486;28;20381;-70
2022/01/24 07:58:08;;;;;;;37.00;15.77;;;;;;;17.99;29.22;103551.03;5053289;28;20412;-70
2022/01/24 08:00:34;;;;;;;36.90;16.60;;;;;;;17.94;29.01;103551.03;5048235;28;20032;-70
2022/01/24 08:03:00;;;;;;;37.80;18.50;;;;;;;18.14;28.45;103551.03;5047291;28;20094;-70
2022/01/24 08:05:26;;;;;;;39.03;17.20;;;;;;;18.08;28.94;103553.69;5056010;28;20107;-70
2022/01/24 08:07:52;;;;;;;38.50;16.77;;;;;;;17.74;29.77;103547.41;5047691;28;20032;-70
2022/01/24 08:10:18;;;;;;;39.37;18.23;;;;;;;18.09;28.88;103554.56;5047973;28;20029;-70
2022/01/24 08:12:44;;;;;;;38.90;16.93;;;;;;;17.99;29.46;103553.66;5064546;28;20111;-70
2022/01/24 08:15:16;;;;;;;37.07;18.27;;;;;;;17.91;29.96;103555.38;5048023;28;20040;-70
2022/01/24 08:17:43;;;;;;;42.88;17.67;;;;;;;17.58;29.43;103562.34;5046671;28;20029;-70
2022/01/24 08:20:10;;;;;;;42.90;19.10;;;;;;;18.26;29.23;103551.94;5047510;28;20048;-70
2022/01/24 08:22:36;;;;;;;39.30;18.73;;;;;;;18.65;28.78;103553.69;5046672;28;20040;-70
2022/01/24 08:25:04;;;;;;;42.70;19.03;;;;;;;18.63;29.07;103557.25;5050370;28;20393;-69
2022/01/24 08:27:31;;;;;;;39.50;18.23;;;;;;;18.24;29.39;103553.69;5048041;28;20480;-70
2022/01/24 08:29:56;;;;;;;36.73;16.87;;;;;;;18.95;28.52;103553.69;5063361;28;20032;-70
2022/01/24 08:32:21;;;;;;;42.77;18.93;;;;;;;18.41;29.00;103559.88;5048655;28;20062;-70
2022/01/24 08:34:47;;;;;;;37.97;17.47;;;;;;;18.05;29.03;103558.09;5049576;28;20029;-69
2022/01/24 08:37:13;;;;;;;41.67;17.20;;;;;;;18.74;28.00;103551.91;5044359;28;20029;-69
2022/01/24 08:39:39;;;;;;;42.77;18.00;;;;;;;18.53;28.62;103555.47;5047871;28;20029;-70
2022/01/24 08:42:15;;;;;;;46.17;18.77;;;;;;;18.39;28.12;103553.69;5047796;28;20037;-70
2022/01/24 08:47:23;;;;;;;44.50;19.50;;;;;;;18.29;28.56;103559.88;5063517;28;20400;-70
2022/01/24 08:49:49;;;;;;;42.57;18.40;;;;;;;18.70;28.48;103553.69;5057789;28;20484;-70
2022/01/24 08:52:15;;;;;;;42.23;19.70;;;;;;;18.86;28.42;103564.28;5046690;28;20273;-70
2022/01/24 08:54:41;;;;;;;42.23;19.30;;;;;;;18.76;27.80;103558.97;5050665;28;20037;-70
2022/01/24 08:57:07;;;;;;;41.37;19.07;;;;;;;18.75;27.76;103556.34;5048362;28;20037;-71
2022/01/24 08:59:33;;;;;;;39.57;18.90;;;;;;;18.64;28.59;103559.00;5051310;28;20025;-70
2022/01/24 09:02:00;;;;;;;41.33;18.20;;;;;;;17.99;29.92;103558.09;5050745;28;20025;-70
2022/01/24 09:04:25;;;;;;;43.33;18.70;;;;;;;17.32;30.79;103559.56;5053854;28;20035;-70
2022/01/24 09:06:52;;;;;;;50.80;20.90;;;;;;;17.77;29.67;103558.84;5062399;28;20033;-70
2022/01/24 09:09:19;;;;;;;46.97;19.53;;;;;;;18.58;27.87;103561.66;5069565;28;20031;-70
2022/01/24 09:11:44;;;;;;;41.83;18.10;;;;;;;18.81;28.25;103557.22;5070669;28;20016;-70
2022/01/24 09:14:10;;;;;;;46.07;19.27;;;;;;;18.79;27.87;103564.28;5065452;28;20545;-70
2022/01/24 09:16:36;;;;;;;48.50;20.87;;;;;;;18.13;27.98;103557.22;5058273;28;20036;-70
2022/01/24 09:19:03;;;;;;;48.87;21.70;;;;;;;18.63;27.57;103562.53;5049987;28;20049;-70
2022/01/24 09:21:29;;;;;;;42.73;18.07;;;;;;;18.77;27.98;103563.41;5056346;28;20072;-70
2022/01/24 09:23:55;;;;;;;41.50;17.40;;;;;;;18.24;28.59;103553.69;5067107;28;20512;-70
2022/01/24 09:26:20;;;;;;;47.17;20.40;;;;;;;18.26;29.13;103554.59;5050308;28;20029;-69
2022/01/24 09:28:46;;;;;;;45.73;20.83;;;;;;;18.27;28.84;103554.59;5050659;28;20108;-70
2022/01/24 09:31:12;;;;;;;46.43;20.53;;;;;;;18.56;28.46;103556.38;5067066;28;20091;-70
2022/01/24 09:33:37;;;;;;;47.10;18.60;;;;;;;18.91;28.39;103551.94;5069154;28;20020;-70
2022/01/24 09:36:04;;;;;;;43.80;19.53;;;;;;;18.53;28.50;103560.75;5049791;28;20502;-70
2022/01/24 09:38:32;;;;;;;46.87;19.60;;;;;;;18.09;29.11;103559.84;5050732;28;20033;-69
2022/01/24 09:40:59;;;;;;;57.23;20.40;;;;;;;18.28;28.74;103560.75;5050996;28;20028;-70
2022/01/24 09:43:25;;;;;;;43.87;19.73;;;;;;;18.20;29.03;103567.81;5049260;28;20009;-70
2022/01/24 09:45:50;;;;;;;45.60;19.20;;;;;;;18.51;28.48;103562.53;5050113;28;20636;-70
2022/01/24 09:48:17;;;;;;;44.40;19.93;;;;;;;18.45;28.93;103566.94;5049712;28;20041;-69
2022/01/24 09:50:46;;;;;;;42.50;19.47;;;;;;;18.58;28.56;103564.31;5066174;28;20090;-70
2022/01/24 09:53:16;;;;;;;43.97;18.87;;;;;;;18.57;29.29;103573.13;5065073;28;20027;-70
2022/01/24 09:55:41;;;;;;;47.43;18.37;;;;;;;17.80;29.64;103579.16;5048873;28;20450;-70
2022/01/24 09:58:07;;;;;;;43.53;18.97;;;;;;;18.07;29.15;103573.09;5051951;28;20411;-70
2022/01/24 10:00:33;;;;;;;47.10;20.00;;;;;;;18.22;29.14;103571.34;5069562;28;20032;-70
2022/01/24 10:02:58;;;;;;;44.87;18.97;;;;;;;18.04;28.27;103573.09;5056788;28;20029;-70
2022/01/24 10:05:30;;;;;;;42.93;19.10;;;;;;;18.73;27.90;103574.88;5048506;28;20140;-70
2022/01/24 10:08:01;;;;;;;45.73;18.47;;;;;;;18.89;27.54;103575.78;5059425;28;20492;-70
2022/01/24 10:10:46;;;;;;;48.10;19.17;;;;;;;18.86;27.59;103569.56;5048554;28;20079;-70
2022/01/24 10:16:26;;;;;;;42.23;19.33;;;;;;;19.11;27.88;103568.66;5055788;28;20050;-70
2022/01/24 10:18:59;;;;;;;46.43;19.70;;;;;;;19.22;27.57;103573.94;5046258;28;20052;-70
2022/01/24 10:21:25;;;;;;;46.50;19.83;;;;;;;18.37;29.15;103570.47;5028501;28;20107;-70
2022/01/24 10:23:50;;;;;;;43.43;19.47;;;;;;;18.76;27.90;103574.88;5042791;28;20041;-70
2022/01/24 10:26:15;;;;;;;47.47;19.43;;;;;;;19.25;27.47;103567.75;5059605;28;20032;-70
2022/01/24 10:28:44;;;;;;;42.47;18.80;;;;;;;18.77;28.33;103571.34;5059223;28;20024;-70
2022/01/24 10:31:16;;;;;;;45.47;18.53;;;;;;;17.96;28.75;103580.13;5052825;28;20055;-70
2022/01/24 10:33:58;;;;;;;48.83;21.27;;;;;;;18.64;28.69;103569.59;5050754;28;20040;-70
2022/01/24 10:36:51;;;;;;;45.95;19.38;;;;;;;19.25;27.96;103567.75;5064668;28;20028;-70
2022/01/24 10:39:54;;;;;;;44.90;19.35;;;;;;;19.28;27.87;103567.75;5047207;28;20052;-70
2022/01/24 10:44:51;;;;;;;43.58;18.58;;;;;;;18.66;28.63;103570.47;5065472;28;20033;-70
2022/01/24 10:47:22;;;;;;;44.23;19.90;;;;;;;19.08;28.28;103566.03;5049489;28;20094;-70
2022/01/24 10:49:48;;;;;;;47.20;19.90;;;;;;;18.45;28.94;103564.31;5048601;28;20052;-70
2022/01/24 10:52:19;;;;;;;44.53;19.60;;;;;;;18.47;29.25;103557.22;5067957;28;20035;-70
2022/01/24 10:54:45;;;;;;;43.10;18.57;;;;;;;18.11;30.07;103558.97;5049391;28;20032;-69
2022/01/24 10:57:25;;;;;;;45.47;20.27;;;;;;;17.86;29.65;103557.13;5048829;28;20035;-70
2022/01/24 10:59:59;;;;;;;42.33;19.40;;;;;;;18.00;30.22;103563.38;5048421;28;20016;-70
2022/01/24 11:02:34;;;;;;;50.67;21.17;;;;;;;17.80;30.36;103553.59;5050820;28;20024;-69
2022/01/24 11:05:20;;;;;;;46.67;19.93;;;;;;;17.92;29.93;103552.75;5049353;28;20087;-69
2022/01/24 11:07:57;;;;;;;41.63;18.10;;;;;;;18.76;28.99;103547.50;5050037;28;20044;-69
2022/01/24 11:10:25;;;;;;;43.10;19.03;;;;;;;18.38;29.07;103546.66;5038223;28;20135;-70
2022/01/24 11:12:52;;;;;;;45.40;19.10;;;;;;;18.40;29.22;103542.22;5046804;28;20074;-69
2022/01/24 11:15:17;;;;;;;47.60;19.23;;;;;;;18.79;28.80;103537.81;5050385;28;20074;-70
2022/01/24 11:17:44;;;;;;;46.17;20.13;;;;;;;18.45;28.63;103545.78;5061656;28;20037;-69
2022/01/24 11:20:14;;;;;;;46.93;18.67;;;;;;;18.99;27.78;103544.84;5063206;28;20106;-69
2022/01/24 11:22:43;;;;;;;45.60;18.93;;;;;;;18.32;28.59;103541.34;5069082;28;20339;-69
2022/01/24 11:25:11;;;;;;;45.63;19.57;;;;;;;18.75;28.43;103541.34;5051467;28;20025;-70
2022/01/24 11:27:43;;;;;;;48.53;20.40;;;;;;;18.92;28.27;103533.38;5052304;28;20028;-70
2022/01/24 11:30:15;;;;;;;43.20;19.17;;;;;;;18.86;28.64;103537.78;5048723;28;20021;-70
2022/01/24 11:32:54;;;;;;;42.20;17.80;;;;;;;17.39;30.07;103530.53;5056575;28;20028;-70
2022/01/24 11:35:54;;;;;;;42.53;17.50;;;;;;;18.23;29.86;103525.44;5065535;28;20119;-70
2022/01/24 11:38:37;;;;;;;41.20;17.50;;;;;;;18.95;28.93;103532.50;5044828;28;20044;-69
2022/01/24 11:41:04;;;;;;;;;;;;;;;18.67;28.89;103526.31;5071599;28;20029;-70
2022/01/24 11:43:37;;;;;;;37.37;16.53;;;;;;;18.77;28.58;103523.66;5050225;28;20298;-70
2022/01/24 11:46:08;;;;;;;;;;;;;;;19.02;28.13;103517.47;5049274;28;20033;-70
2022/01/24 11:48:36;;;;;;;38.83;16.90;;;;;;;18.76;28.92;103521.88;5047237;28;20011;-70
2022/01/24 11:51:10;;;;;;;38.93;16.57;;;;;;;18.72;28.49;103513.97;5048283;28;20120;-70
2022/01/24 11:53:43;;;;;;;44.93;18.43;;;;;;;19.14;27.93;103522.72;5046271;28;20543;-70
2022/01/24 11:56:24;;;;;;;40.83;17.83;;;;;;;18.23;28.95;103526.34;5057602;28;20047;-70
2022/01/24 11:58:50;;;;;;;39.77;16.63;;;;;;;18.58;28.01;103516.63;5054558;28;20033;-70
2022/01/24 12:01:39;;;;;;;44.77;18.37;;;;;;;18.76;28.05;103521.88;5049829;28;20024;-70
2022/01/24 12:04:05;;;;;;;39.83;17.80;;;;;;;17.58;28.88;103520.03;5050346;28;20102;-69
2022/01/24 12:07:11;;;;;;;36.77;17.50;;;;;;;18.63;28.74;103522.81;5049423;28;20074;-70
2022/01/24 12:09:36;;;;;;;39.43;18.37;;;;;;;17.85;29.28;103515.69;5032972;28;20050;-70
2022/01/24 12:12:43;;;;;;;44.50;18.70;;;;;;;18.75;28.38;103516.59;5040317;28;20370;-70
2022/01/24 12:15:10;;;;;;;40.20;18.03;;;;;;;18.60;27.98;103522.78;5051012;28;20033;-70
2022/01/24 12:17:47;;;;;;;37.87;17.30;;;;;;;18.70;28.52;103516.59;5051460;28;20511;-69
2022/01/24 12:20:31;;;;;;;40.23;16.97;;;;;;;18.44;28.10;103525.47;5048454;28;20045;-69
2022/01/24 12:23:19;;;;;;;35.13;16.70;;;;;;;18.40;27.64;103513.09;5063887;28;20045;-70
2022/01/24 12:25:47;;;;;;;42.77;18.00;;;;;;;17.39;29.58;103514.69;5062369;28;20036;-70
2022/01/24 12:28:23;;;;;;;41.17;17.97;;;;;;;17.87;28.96;103521.84;5050110;28;20033;-69
2022/01/24 12:31:24;;;;;;;38.47;18.60;;;;;;;17.77;29.12;103515.66;5050438;28;20032;-69
2022/01/24 12:33:52;;;;;;;38.97;17.33;;;;;;;17.63;29.12;103510.34;5039444;28;20067;-69
2022/01/24 12:36:47;;;;;;;36.13;17.43;;;;;;;18.45;27.99;103508.69;5067468;28;20048;-70
2022/01/24 12:39:33;;;;;;;32.20;15.87;;;;;;;18.16;28.77;103502.50;5046232;28;20140;-69
2022/01/24 12:42:11;;;;;;;40.17;17.37;;;;;;;17.57;29.61;103505.03;5050519;28;20033;-70
2022/01/24 12:47:11;;;;;;;39.37;17.67;;;;;;;18.85;28.33;103512.16;5059863;28;20547;-70
2022/01/24 12:49:38;;;;;;;44.83;18.30;;;;;;;19.18;27.72;103505.00;5070369;28;20113;-70
2022/01/24 12:52:06;;;;;;;42.07;18.50;;;;;;;18.58;27.91;103500.75;5051172;28;20021;-70
2022/01/24 12:54:38;;;;;;;36.70;16.87;;;;;;;18.40;27.87;103507.81;5051805;28;20037;-69
2022/01/24 12:57:09;;;;;;;37.67;17.10;;;;;;;18.22;28.64;103497.25;5058613;28;20032;-70
2022/01/24 12:59:36;;;;;;;36.07;17.37;;;;;;;17.09;30.20;103495.16;5087568;28;20028;-70
2022/01/24 13:02:08;;;;;;;39.23;17.43;;;;;;;17.62;29.83;103495.34;5051476;28;20045;-70
2022/01/24 13:04:37;;;;;;;40.47;17.23;;;;;;;18.45;28.39;103495.47;5049594;28;20029;-69
2022/01/24 13:07:04;;;;;;;36.60;16.47;;;;;;;18.93;28.31;103486.53;5065962;28;20494;-69
2022/01/24 13:09:30;;;;;;;36.43;16.77;;;;;;;19.23;27.62;103479.38;5050562;28;20029;-69